createdAt,value
2019-03-20T00:00:32.615Z,19.70
2019-03-20T00:03:01.774Z,20.60
2019-03-20T00:05:31.125Z,20.20
2019-03-20T00:08:00.177Z,22.83
2019-03-20T00:10:29.290Z,19.50
2019-03-20T00:12:58.350Z,18.77
2019-03-20T00:15:27.391Z,18.43
2019-03-20T00:17:56.487Z,19.10
2019-03-20T00:20:25.615Z,18.50
2019-03-20T00:22:54.645Z,20.47
2019-03-20T00:25:23.705Z,17.97
2019-03-20T00:27:52.731Z,17.77
2019-03-20T00:30:21.849Z,18.47
2019-03-20T00:32:50.917Z,18.40
2019-03-20T00:35:19.980Z,18.13
2019-03-20T00:37:48.994Z,19.40
2019-03-20T00:40:18.032Z,18.80
2019-03-20T00:42:47.078Z,20.20
2019-03-20T00:45:16.145Z,18.40
2019-03-20T00:47:45.206Z,18.83
2019-03-20T00:50:15.365Z,18.33
2019-03-20T00:52:44.393Z,19.10
2019-03-20T00:55:13.903Z,18.93
2019-03-20T00:57:43.043Z,19.00
2019-03-20T01:00:15.067Z,18.13
2019-03-20T01:02:44.087Z,19.40
2019-03-20T01:05:13.751Z,19.30
2019-03-20T01:07:42.773Z,19.90
2019-03-20T01:10:14.393Z,19.97
2019-03-20T01:12:43.465Z,20.53
2019-03-20T01:15:12.480Z,19.23
2019-03-20T01:17:41.500Z,19.93
2019-03-20T01:20:11.417Z,21.27
2019-03-20T01:22:40.466Z,19.33
2019-03-20T01:25:10.396Z,19.60
2019-03-20T01:27:39.510Z,19.73
2019-03-20T01:30:11.050Z,21.43
2019-03-20T01:32:40.062Z,20.70
2019-03-20T01:35:09.134Z,21.17
2019-03-20T01:37:38.080Z,20.53
2019-03-20T01:40:07.323Z,20.77
2019-03-20T01:42:36.377Z,21.97
2019-03-20T01:45:05.890Z,20.60
2019-03-20T01:47:34.861Z,20.30
2019-03-20T01:50:04.235Z,20.93
2019-03-20T01:52:33.286Z,19.20
2019-03-20T01:55:02.304Z,20.17
2019-03-20T01:57:31.363Z,19.10
2019-03-20T02:00:00.426Z,18.03
2019-03-20T02:02:29.478Z,19.30
2019-03-20T02:04:58.522Z,20.33
2019-03-20T02:07:27.819Z,19.43
2019-03-20T02:09:56.885Z,19.97
2019-03-20T02:12:25.912Z,20.40
2019-03-20T02:14:54.854Z,20.40
2019-03-20T02:17:24.338Z,22.13
2019-03-20T02:19:53.672Z,19.40
2019-03-20T02:22:22.682Z,20.50
2019-03-20T02:24:51.665Z,19.00
2019-03-20T02:27:21.021Z,19.53
2019-03-20T02:29:50.037Z,18.10
2019-03-20T02:32:19.415Z,19.13
2019-03-20T02:34:48.377Z,19.43
2019-03-20T02:37:17.441Z,20.23
2019-03-20T02:39:46.449Z,20.53
2019-03-20T02:42:15.457Z,19.67
2019-03-20T02:44:44.809Z,20.33
2019-03-20T02:47:13.754Z,18.60
2019-03-20T02:49:42.801Z,19.37
2019-03-20T02:52:11.747Z,19.63
2019-03-20T02:54:40.733Z,18.70
2019-03-20T02:57:09.665Z,18.80
2019-03-20T02:59:38.649Z,19.10
2019-03-20T03:02:07.742Z,18.07
2019-03-20T03:04:36.714Z,19.10
2019-03-20T03:07:05.789Z,18.73
2019-03-20T03:09:35.041Z,17.73
2019-03-20T03:12:04.363Z,19.20
2019-03-20T03:14:33.419Z,18.13
2019-03-20T03:17:02.443Z,20.43
2019-03-20T03:19:31.490Z,18.67
2019-03-20T03:22:00.497Z,19.37
2019-03-20T03:24:29.563Z,18.87
2019-03-20T03:26:58.576Z,19.70
2019-03-20T03:29:27.872Z,19.63
2019-03-20T03:31:56.925Z,20.40
2019-03-20T03:34:25.911Z,20.47
2019-03-20T03:36:54.937Z,20.33
2019-03-20T03:39:25.058Z,19.40
2019-03-20T03:41:54.181Z,21.50
2019-03-20T03:44:23.231Z,22.07
2019-03-20T03:46:52.340Z,21.43
2019-03-20T03:49:21.327Z,21.40
2019-03-20T03:51:50.380Z,23.40
2019-03-20T03:54:19.517Z,23.57
2019-03-20T03:56:49.693Z,22.03
2019-03-20T03:59:18.765Z,26.03
2019-03-20T04:01:47.780Z,22.67
2019-03-20T04:04:16.834Z,24.23
2019-03-20T04:06:46.600Z,22.80
2019-03-20T04:09:15.619Z,25.63
2019-03-20T04:11:44.674Z,24.03
2019-03-20T04:14:13.683Z,24.43
2019-03-20T04:16:42.677Z,23.70
2019-03-20T04:19:11.729Z,24.77
2019-03-20T04:21:40.743Z,24.57
2019-03-20T04:24:09.799Z,25.53
2019-03-20T04:26:38.810Z,23.53
2019-03-20T04:29:07.887Z,24.57
2019-03-20T04:31:36.874Z,25.63
2019-03-20T04:34:05.933Z,26.00
2019-03-20T04:36:46.776Z,26.77
2019-03-20T04:39:07.935Z,25.97
2019-03-20T04:41:36.983Z,26.10
2019-03-20T04:44:06.045Z,26.97
2019-03-20T04:46:35.381Z,27.57
2019-03-20T04:49:04.759Z,28.57
2019-03-20T04:51:33.731Z,27.73
2019-03-20T04:54:02.770Z,28.50
2019-03-20T04:56:32.209Z,29.27
2019-03-20T04:59:01.231Z,30.10
2019-03-20T05:01:30.291Z,31.97
2019-03-20T05:03:59.342Z,31.80
2019-03-20T05:06:28.358Z,31.23
2019-03-20T05:08:57.298Z,31.73
2019-03-20T05:11:26.383Z,33.57
2019-03-20T05:13:56.034Z,34.00
2019-03-20T05:16:25.041Z,36.07
2019-03-20T05:18:54.019Z,34.00
2019-03-20T05:21:23.074Z,35.17
2019-03-20T05:23:52.237Z,43.53
2019-03-20T05:26:21.205Z,35.90
2019-03-20T05:28:50.265Z,36.33
2019-03-20T05:31:19.280Z,38.43
2019-03-20T05:33:48.285Z,35.80
2019-03-20T05:36:17.257Z,37.93
2019-03-20T05:38:46.266Z,38.23
2019-03-20T05:41:15.318Z,41.47
2019-03-20T05:43:44.694Z,37.63
2019-03-20T05:46:13.750Z,40.70
2019-03-20T05:48:42.771Z,39.97
2019-03-20T05:51:11.770Z,40.53
2019-03-20T05:53:40.828Z,43.83
2019-03-20T05:56:09.778Z,39.47
2019-03-20T05:58:39.394Z,41.53
2019-03-20T06:01:08.490Z,44.53
2019-03-20T06:03:37.475Z,43.40
2019-03-20T06:06:06.812Z,44.67
2019-03-20T06:08:35.829Z,45.83
2019-03-20T06:11:04.878Z,46.57
2019-03-20T06:13:33.942Z,44.97
2019-03-20T06:16:02.963Z,50.00
2019-03-20T06:18:32.010Z,45.70
2019-03-20T06:21:01.042Z,49.13
2019-03-20T06:23:30.098Z,48.30
2019-03-20T06:25:59.167Z,49.93
2019-03-20T06:28:28.391Z,50.63
2019-03-20T06:30:57.423Z,52.00
2019-03-20T06:33:26.484Z,47.80
2019-03-20T06:35:55.515Z,48.93
2019-03-20T06:38:24.449Z,50.43
2019-03-20T06:40:53.504Z,51.87
2019-03-20T06:43:22.913Z,51.27
2019-03-20T06:45:52.364Z,51.10
2019-03-20T06:48:21.713Z,52.60
2019-03-20T06:50:50.733Z,52.40
2019-03-20T06:53:19.819Z,54.97
2019-03-20T06:55:49.221Z,66.40
2019-03-20T06:58:18.510Z,54.10
2019-03-20T07:00:57.149Z,61.33
2019-03-20T07:04:10.884Z,57.90
2019-03-20T07:06:47.263Z,55.17
2019-03-20T07:09:26.383Z,58.97
2019-03-20T07:11:55.364Z,54.27
2019-03-20T07:14:24.358Z,55.97
2019-03-20T07:16:53.293Z,54.50
2019-03-20T07:19:23.645Z,53.53
2019-03-20T07:21:52.695Z,55.80
2019-03-20T07:24:21.710Z,57.70
2019-03-20T07:26:50.690Z,56.10
2019-03-20T07:29:19.638Z,56.80
2019-03-20T07:31:48.686Z,56.00
2019-03-20T07:34:17.698Z,58.93
2019-03-20T07:36:47.076Z,56.30
2019-03-20T07:39:15.981Z,56.17
2019-03-20T07:41:44.918Z,57.73
2019-03-20T07:44:13.933Z,55.03
2019-03-20T07:46:42.985Z,57.87
2019-03-20T07:49:12.008Z,59.40
2019-03-20T07:51:41.058Z,55.87
2019-03-20T07:54:10.080Z,59.23
2019-03-20T07:56:39.133Z,59.87
2019-03-20T07:59:08.189Z,58.80
2019-03-20T08:01:37.199Z,60.23
2019-03-20T08:04:06.236Z,57.80
2019-03-20T08:06:35.298Z,59.60
2019-03-20T08:09:06.098Z,56.77
2019-03-20T08:11:35.421Z,57.60
2019-03-20T08:14:04.582Z,59.67
2019-03-20T08:16:33.595Z,59.37
2019-03-20T08:19:02.604Z,61.13
2019-03-20T08:21:31.651Z,62.80
2019-03-20T08:24:00.634Z,60.73
2019-03-20T08:26:29.575Z,59.90
2019-03-20T08:28:58.576Z,60.23
2019-03-20T08:31:27.643Z,61.10
2019-03-20T08:33:56.653Z,63.90
2019-03-20T08:36:25.702Z,60.63
2019-03-20T08:38:54.727Z,63.70
2019-03-20T08:41:23.782Z,68.80
2019-03-20T08:43:52.765Z,68.07
2019-03-20T08:46:21.789Z,64.80
2019-03-20T08:48:50.805Z,64.17
2019-03-20T08:51:20.194Z,64.33
2019-03-20T08:53:49.129Z,66.80
2019-03-20T08:56:18.147Z,64.60
2019-03-20T08:58:47.204Z,69.07
2019-03-20T09:01:16.204Z,70.40
2019-03-20T09:03:45.062Z,71.33
2019-03-20T09:06:14.157Z,76.40
2019-03-20T09:08:43.086Z,79.33
2019-03-20T09:11:12.116Z,77.33
2019-03-20T09:13:41.093Z,81.90
2019-03-20T09:16:10.145Z,80.47
2019-03-20T09:18:39.133Z,81.27
2019-03-20T09:21:08.141Z,93.70
2019-03-20T09:23:37.143Z,81.73
2019-03-20T09:26:06.150Z,85.37
2019-03-20T09:28:35.134Z,79.20
2019-03-20T09:31:04.190Z,94.37
2019-03-20T09:33:33.200Z,90.37
2019-03-20T09:36:02.600Z,86.60
2019-03-20T09:38:42.698Z,94.00
2019-03-20T09:41:02.316Z,92.07
2019-03-20T09:43:31.330Z,90.20
2019-03-20T09:46:00.618Z,88.20
2019-03-20T09:48:29.637Z,93.13
2019-03-20T09:50:58.674Z,91.33
2019-03-20T09:53:27.691Z,94.57
2019-03-20T09:55:56.773Z,104.80
2019-03-20T09:58:25.762Z,88.80
2019-03-20T10:00:54.757Z,103.83
2019-03-20T10:03:23.782Z,102.27
2019-03-20T10:05:52.790Z,96.83
2019-03-20T10:08:21.809Z,97.40
2019-03-20T10:10:50.824Z,101.67
2019-03-20T10:13:19.898Z,106.37
2019-03-20T10:15:48.915Z,112.93
2019-03-20T10:18:17.933Z,99.07
2019-03-20T10:20:46.991Z,101.30
2019-03-20T10:23:15.971Z,107.33
2019-03-20T10:25:45.187Z,108.87
2019-03-20T10:28:14.230Z,125.60
2019-03-20T10:30:43.295Z,124.27
2019-03-20T10:33:12.332Z,125.20
2019-03-20T10:35:49.854Z,120.43
2019-03-20T10:38:12.131Z,130.43
2019-03-20T10:40:41.110Z,123.00
2019-03-20T10:43:10.167Z,105.90
2019-03-20T10:45:39.231Z,121.07
2019-03-20T10:48:08.246Z,126.37
2019-03-20T10:50:37.259Z,144.43
2019-03-20T10:53:06.326Z,135.53
2019-03-20T10:55:35.339Z,153.27
2019-03-20T10:58:04.425Z,131.40
2019-03-20T11:00:33.428Z,150.50
2019-03-20T11:03:02.496Z,146.20
2019-03-20T11:05:31.603Z,141.17
2019-03-20T11:08:00.630Z,136.67
2019-03-20T11:10:29.927Z,136.43
2019-03-20T11:12:58.961Z,129.87
2019-03-20T11:15:29.719Z,138.30
2019-03-20T11:17:58.744Z,133.53
2019-03-20T11:20:27.999Z,132.07
2019-03-20T11:22:57.015Z,133.67
2019-03-20T11:25:26.086Z,130.73
2019-03-20T11:27:55.111Z,125.17
2019-03-20T11:30:24.844Z,129.60
2019-03-20T11:32:53.862Z,110.17
2019-03-20T11:35:23.444Z,114.87
2019-03-20T11:37:52.576Z,106.90
2019-03-20T11:40:26.660Z,109.57
2019-03-20T11:42:55.807Z,121.77
2019-03-20T11:45:24.941Z,118.67
2019-03-20T11:47:53.990Z,124.93
2019-03-20T11:50:42.333Z,123.73
2019-03-20T11:53:11.400Z,115.60
2019-03-20T11:55:40.439Z,126.23
2019-03-20T11:58:09.560Z,122.10
2019-03-20T12:00:38.619Z,126.63
2019-03-20T12:03:07.640Z,123.63
2019-03-20T12:05:36.719Z,117.73
2019-03-20T12:08:05.793Z,122.60
2019-03-20T12:10:34.817Z,130.17
2019-03-20T12:13:03.867Z,124.50
2019-03-20T12:15:33.174Z,112.47
2019-03-20T12:18:02.339Z,111.83
2019-03-20T12:20:31.665Z,97.40
2019-03-20T12:23:00.688Z,113.10
2019-03-20T12:25:29.771Z,119.13
2019-03-20T12:27:59.578Z,116.33
2019-03-20T12:30:29.606Z,109.80
2019-03-20T12:32:58.727Z,120.60
2019-03-20T12:35:28.828Z,115.20
2019-03-20T12:37:57.957Z,123.87
2019-03-20T12:40:28.391Z,120.97
2019-03-20T12:42:57.764Z,102.20
2019-03-20T12:45:28.532Z,108.90
2019-03-20T12:47:57.558Z,102.00
2019-03-20T12:50:26.600Z,107.77
2019-03-20T12:52:55.762Z,94.13
2019-03-20T12:55:24.807Z,90.03
2019-03-20T12:57:54.055Z,101.17
2019-03-20T13:00:23.567Z,87.80
2019-03-20T13:02:53.066Z,92.10
2019-03-20T13:05:22.082Z,85.43
2019-03-20T13:07:51.398Z,79.33
2019-03-20T13:10:20.622Z,79.67
2019-03-20T13:12:49.889Z,77.20
2019-03-20T13:15:20.621Z,80.87
2019-03-20T13:17:49.677Z,80.83
2019-03-20T13:20:18.751Z,67.50
2019-03-20T13:22:53.562Z,88.57
2019-03-20T13:25:22.634Z,74.40
2019-03-20T13:27:51.826Z,79.07
2019-03-20T13:30:26.652Z,77.97
2019-03-20T13:32:55.714Z,68.37
2019-03-20T13:35:24.728Z,72.97
2019-03-20T13:37:54.115Z,71.50
2019-03-20T13:40:23.176Z,79.07
2019-03-20T13:42:53.483Z,65.33
2019-03-20T13:45:22.561Z,67.40
2019-03-20T13:47:51.626Z,69.70
2019-03-20T13:50:20.643Z,83.43
2019-03-20T13:52:49.767Z,69.57
2019-03-20T13:55:18.788Z,73.00
2019-03-20T13:57:47.807Z,69.07
2019-03-20T14:00:21.080Z,59.30
2019-03-20T14:02:50.124Z,51.33
2019-03-20T14:05:19.346Z,55.00
2019-03-20T14:07:48.407Z,66.60
2019-03-20T14:10:25.071Z,52.70
2019-03-20T14:12:49.499Z,49.93
2019-03-20T14:15:19.063Z,39.60
2019-03-20T14:17:48.379Z,40.07
2019-03-20T14:20:19.559Z,40.30
2019-03-20T14:22:48.577Z,43.20
2019-03-20T14:25:17.634Z,38.03
2019-03-20T14:27:46.730Z,39.07
2019-03-20T14:30:18.190Z,37.90
2019-03-20T14:32:47.264Z,35.50
2019-03-20T14:35:16.299Z,37.33
2019-03-20T14:37:45.360Z,47.17
2019-03-20T14:40:15.046Z,39.50
2019-03-20T14:42:44.109Z,37.30
2019-03-20T14:45:14.406Z,37.20
2019-03-20T14:47:43.467Z,43.90
2019-03-20T14:50:17.268Z,39.43
2019-03-20T14:52:46.492Z,36.13
2019-03-20T14:55:15.595Z,41.57
2019-03-20T14:57:44.615Z,44.70
2019-03-20T15:00:19.121Z,36.60
2019-03-20T15:02:48.244Z,36.40
2019-03-20T15:05:17.603Z,37.07
2019-03-20T15:07:46.916Z,31.80
2019-03-20T15:10:17.038Z,34.50
2019-03-20T15:12:46.243Z,33.60
2019-03-20T15:15:48.260Z,33.20
2019-03-20T15:18:17.319Z,35.93
2019-03-20T15:20:46.407Z,42.17
2019-03-20T15:23:15.423Z,37.30
2019-03-20T15:25:44.439Z,34.00
2019-03-20T15:28:13.517Z,39.30
2019-03-20T15:30:42.531Z,33.40
2019-03-20T15:33:11.847Z,30.87
2019-03-20T15:35:40.925Z,39.03
2019-03-20T15:38:09.937Z,31.20
2019-03-20T15:40:39.008Z,33.57
2019-03-20T15:43:08.034Z,31.63
2019-03-20T15:45:37.016Z,34.47
2019-03-20T15:48:06.075Z,29.20
2019-03-20T15:50:35.179Z,28.87
2019-03-20T15:53:04.330Z,29.60
2019-03-20T15:55:33.398Z,28.23
2019-03-20T15:58:02.419Z,30.80
2019-03-20T16:00:31.480Z,28.93
2019-03-20T16:03:06.100Z,33.23
2019-03-20T16:05:35.160Z,29.70
2019-03-20T16:08:04.381Z,29.47
2019-03-20T16:10:33.450Z,31.60
2019-03-20T16:13:02.483Z,34.10
2019-03-20T16:15:31.532Z,30.83
2019-03-20T16:18:00.623Z,29.13
2019-03-20T16:20:29.666Z,30.60
2019-03-20T16:22:58.728Z,31.13
2019-03-20T16:25:27.745Z,33.90
2019-03-20T16:27:56.801Z,37.07
2019-03-20T16:30:25.757Z,32.23
2019-03-20T16:32:56.515Z,38.53
2019-03-20T16:35:25.695Z,32.53
2019-03-20T16:37:54.711Z,44.90
2019-03-20T16:40:24.562Z,33.27
2019-03-20T16:42:53.634Z,32.37
2019-03-20T16:45:24.709Z,38.87
2019-03-20T16:47:53.735Z,36.10
2019-03-20T16:50:22.796Z,35.43
2019-03-20T16:52:51.810Z,45.00
2019-03-20T16:55:20.894Z,43.07
2019-03-20T16:57:49.914Z,32.70
2019-03-20T17:00:23.695Z,40.77
2019-03-20T17:02:52.752Z,35.67
2019-03-20T17:05:22.287Z,35.33
2019-03-20T17:07:51.337Z,38.50
2019-03-20T17:10:22.874Z,44.20
2019-03-20T17:12:51.928Z,37.70
2019-03-20T17:15:22.604Z,39.23
2019-03-20T17:17:51.622Z,40.03
2019-03-20T17:20:21.146Z,35.00
2019-03-20T17:22:50.199Z,36.20
2019-03-20T17:25:19.363Z,42.67
2019-03-20T17:27:48.471Z,35.87
2019-03-20T17:30:19.902Z,37.67
2019-03-20T17:32:48.954Z,41.43
2019-03-20T17:35:18.106Z,35.07
2019-03-20T17:37:47.319Z,36.87
2019-03-20T17:40:17.345Z,35.60
2019-03-20T17:42:46.355Z,36.77
2019-03-20T17:45:16.145Z,40.43
2019-03-20T17:47:45.179Z,42.97
2019-03-20T17:50:19.665Z,35.90
2019-03-20T17:52:48.722Z,35.27
2019-03-20T17:55:17.766Z,35.30
2019-03-20T17:57:46.819Z,36.57
2019-03-20T18:00:20.046Z,34.07
2019-03-20T18:02:49.398Z,42.07
2019-03-20T18:05:18.424Z,39.63
2019-03-20T18:07:47.513Z,43.37
2019-03-20T18:10:16.521Z,35.40
2019-03-20T18:12:45.576Z,37.17
2019-03-20T18:15:14.697Z,37.13
2019-03-20T18:17:43.720Z,37.47
2019-03-20T18:20:13.552Z,41.10
2019-03-20T18:22:42.554Z,36.17
2019-03-20T18:25:11.595Z,35.40
2019-03-20T18:27:40.639Z,44.40
2019-03-20T18:30:16.471Z,37.40
2019-03-20T18:32:45.517Z,36.27
2019-03-20T18:35:15.012Z,34.93
2019-03-20T18:37:44.023Z,40.80
2019-03-20T18:40:14.751Z,38.17
2019-03-20T18:42:43.850Z,38.83
2019-03-20T18:45:13.873Z,37.23
2019-03-20T18:47:42.926Z,38.83
2019-03-20T18:50:12.396Z,46.20
2019-03-20T18:52:41.411Z,38.10
2019-03-20T18:55:10.858Z,54.80
2019-03-20T18:57:39.923Z,43.90
2019-03-20T19:00:12.601Z,44.40
2019-03-20T19:02:41.688Z,51.50
2019-03-20T19:05:13.279Z,47.73
2019-03-20T19:07:42.291Z,43.60
2019-03-20T19:10:11.637Z,54.63
2019-03-20T19:12:40.698Z,49.03
2019-03-20T19:15:09.976Z,47.50
2019-03-20T19:17:39.022Z,50.43
2019-03-20T19:20:08.364Z,44.03
2019-03-20T19:22:37.410Z,45.67
2019-03-20T19:25:07.542Z,55.03
2019-03-20T19:27:36.554Z,52.73
2019-03-20T19:30:06.897Z,56.33
2019-03-20T19:32:35.963Z,57.77
2019-03-20T19:35:07.177Z,51.80
2019-03-20T19:37:36.189Z,54.73
2019-03-20T19:40:06.332Z,56.23
2019-03-20T19:42:35.379Z,57.83
2019-03-20T19:45:05.014Z,50.07
2019-03-20T19:47:34.301Z,52.67
2019-03-20T19:50:03.461Z,53.20
2019-03-20T19:52:32.560Z,50.47
2019-03-20T19:55:01.914Z,60.13
2019-03-20T19:57:31.053Z,64.33
2019-03-20T20:00:00.352Z,57.83
2019-03-20T20:02:29.409Z,59.03
2019-03-20T20:04:58.433Z,73.40
2019-03-20T20:07:27.515Z,78.37
2019-03-20T20:09:56.573Z,71.70
2019-03-20T20:12:31.292Z,53.60
2019-03-20T20:14:56.382Z,66.93
2019-03-20T20:17:25.392Z,65.70
2019-03-20T20:19:54.401Z,83.07
2019-03-20T20:22:23.456Z,80.43
2019-03-20T20:24:52.471Z,71.50
2019-03-20T20:27:21.519Z,74.17
2019-03-20T20:29:50.573Z,83.87
2019-03-20T20:32:19.509Z,77.90
2019-03-20T20:34:48.564Z,77.97
2019-03-20T20:37:17.614Z,69.23
2019-03-20T20:39:46.598Z,100.20
2019-03-20T20:42:15.653Z,73.00
2019-03-20T20:44:44.657Z,80.10
2019-03-20T20:47:13.592Z,81.23
2019-03-20T20:49:42.656Z,89.97
2019-03-20T20:52:19.491Z,83.73
2019-03-20T20:54:42.730Z,95.47
2019-03-20T20:57:11.741Z,105.63
2019-03-20T20:59:40.754Z,100.53
2019-03-20T21:02:09.847Z,88.47
2019-03-20T21:04:38.844Z,107.80
2019-03-20T21:07:07.864Z,103.37
2019-03-20T21:09:36.873Z,83.63
2019-03-20T21:12:05.961Z,99.97
2019-03-20T21:14:34.984Z,100.93
2019-03-20T21:17:05.579Z,112.43
2019-03-20T21:19:36.491Z,114.27
2019-03-20T21:22:39.103Z,106.37
2019-03-20T21:25:08.753Z,97.43
2019-03-20T21:28:28.489Z,121.97
2019-03-20T21:31:20.529Z,94.40
2019-03-20T21:34:21.170Z,95.43
2019-03-20T21:37:31.247Z,76.27
2019-03-20T21:40:00.802Z,90.30
2019-03-20T21:43:18.963Z,101.67
2019-03-20T21:46:35.520Z,110.47
2019-03-20T21:49:05.161Z,98.73
2019-03-20T21:51:34.751Z,113.90
2019-03-20T21:54:42.599Z,100.40
2019-03-20T21:57:33.396Z,101.97
2019-03-20T22:00:43.406Z,108.97
2019-03-20T22:03:12.954Z,100.00
2019-03-20T22:06:18.263Z,88.57
2019-03-20T22:08:49.351Z,116.60
2019-03-20T22:11:54.095Z,113.10
2019-03-20T22:14:23.716Z,105.40
2019-03-20T22:17:26.852Z,118.27
2019-03-20T22:20:04.705Z,101.27
2019-03-20T22:23:15.322Z,102.60
2019-03-20T22:26:27.030Z,116.23
2019-03-20T22:29:21.586Z,121.03
2019-03-20T22:32:12.267Z,120.90
2019-03-20T22:34:47.746Z,108.23
2019-03-20T22:37:17.883Z,133.17
2019-03-20T22:40:32.442Z,115.47
2019-03-20T22:43:30.140Z,114.27
2019-03-20T22:46:38.815Z,144.87
2019-03-20T22:49:49.743Z,135.00
2019-03-20T22:52:54.895Z,105.30
2019-03-20T22:55:43.087Z,105.27
2019-03-20T22:58:47.328Z,100.50
2019-03-20T23:01:26.920Z,91.73
2019-03-20T23:04:03.975Z,98.87
2019-03-20T23:06:33.621Z,102.67
2019-03-20T23:09:03.262Z,90.03
2019-03-20T23:11:32.975Z,92.37
2019-03-20T23:14:02.525Z,90.30
2019-03-20T23:16:32.276Z,92.37
2019-03-20T23:19:01.855Z,85.93
2019-03-20T23:21:31.555Z,87.83
2019-03-20T23:24:01.101Z,90.67
2019-03-20T23:26:30.991Z,90.40
2019-03-20T23:29:00.906Z,86.87
2019-03-20T23:31:30.443Z,98.70
2019-03-20T23:34:00.012Z,90.33
2019-03-20T23:36:29.628Z,75.40
2019-03-20T23:38:59.204Z,81.30
2019-03-20T23:41:28.741Z,78.97
2019-03-20T23:43:58.308Z,83.60
2019-03-20T23:46:27.797Z,81.40
2019-03-20T23:49:04.285Z,82.90
2019-03-20T23:51:34.081Z,92.80
2019-03-20T23:54:03.730Z,76.10
2019-03-20T23:56:34.594Z,98.73
2019-03-20T23:59:04.851Z,97.83
